Aeroporto :
LOGIN :

Iscrizione | Disclaimer

   EN    FR    IT 

 










Sommario :    VFR   VFR Marginale   IFR   IFR Intensivo   IFR Molto Intensivo
Visibilità : 
Base nubi : 
>= 8 km
>= 3000ft
5 / 8 km
1000 / 3000 ft
1500m / 5 km
500 / 1000 ft
800 / 1500m
200 / 500 ft
< 800m
< 200 ft
Simboli :   Temporali  Nebbia  Neve Forte  Precipitazioni Forti  Vento > 20 kt
SIGMETs :   Varie  Temporali  Ghiacco  Turbolenza  Onda orograficha  Ceneri Vulcaniche







- Altitudine del aeroporto : 197 ft
- Codice IATA : XOG
- Carte del aeroporto


LFMO - Orange

ULTIMO METAR :
  • 211030Z AUTO 32007KT CAVOK 19/08 Q1016 NOSIG

METARs OBSOLETI :
  • 211000Z AUTO 25006KT 180V300 9999 FEW070 SCT084 BKN100 18/09 Q1016 NOSIG
  • 210930Z AUTO 28006KT 220V310 CAVOK 18/09 Q1016 NOSIG
  • 210900Z AUTO 28008KT 240V310 CAVOK 17/09 Q1016 NOSIG
  • 210830Z AUTO 26005KT 200V350 9999 FEW052 BKN098 BKN120 17/09 Q1017 NOSIG
  • 210800Z AUTO 32005KT CAVOK 17/07 Q1017 TEMPO 4000 -RA
  • 210730Z AUTO 34007KT CAVOK 16/07 Q1017 TEMPO 4000 -RA

TAF TAF LFMO
Valido dal 21 a 09 ore il 22 a 09 ore UTC


210800Z 2109/2209 VRB02KT CAVOK
TEMPO 2110/2118 VRB12KT
Nessun NOTAM noto per questo aeroporto.
2 SIGMETs conosciuti per la FIR Marseille (LFMM) :
 
Turbolenza severa
LFMM SIGMET 5 VALID 210900/211200 LFPW
LFMM MARSEILLE FIR/UIR SEV TURB FCST WI N4145 E00945 - N4115 E00945 - N4115 E00815 - N4300 E00930 - N4145 E00945 SFC/FL080 STNR NC=
Turbolenza severa
LFMM SIGMET 4 VALID 210850/211200 LFPW
LFMM MARSEILLE FIR/UIR SEV TURB FCST WI N4445 E00700 - N4400 E00700 - N4345 E00800 - N4245 E00545 - N4445 E00615 - N4445 E00700 SFC/FL080 STNR NC=



MetMap, La meteo Aeronautica in un colpo d'occhio ! - Copyright ORBIFLY Dicembre 2007 - Disclaimer

ORBIFLY MET'MAP TEAM :

Programmazione e sviluppo : Alexandra Zaïnal
Concezione e sviluppo : Baudouin d'Aumeries
Co-Programmazione e sviluppo : Marc-Olivier Méhu
Supporto tecnico e logistico : Manuel Goepfert
Aiuto per la traduzione : Arnaldo La Scala

Contatto : metmap@orbifly.com




FONTI E CREDITI :

   NOAA